메인 페이지
METAR-TAF:

METAR-TAF

공항 :

Childress, 텍사스, 미국

위도: 34-25-39N, 경도: 100-17-00W, 고도: 595m

현재 날씨관측

예보는 38분 전, 19:53시(UTC)에 발표되었습니다.
14kt
온도 16°C
습도 72%
기압 1016 hPa
시정: 16.1km
고도 2400ft 상공 흐림

METAR: KCDS 051953Z AUTO 18014KT 10SM OVC024 16/11 A3001 RMK AO2 SLP152 T01610106

시각: 15:31 (20:31 UTC)

예보

예보는 1 시간 32분 전, 18:59시(UTC)에 발표되었습니다.
예보 대상 시간: 05일 19시부터 06일 18시까지 (UTC)
남남동10kt
시정: 10km
고도 800ft 상공 흐림
05일 2000시부터 (UTC)
남남동11kt
시정: 10km
고도 1500ft 상공 흐림
05일 2100시부터 (UTC)
15kt
시정: 10km
고도 8000ft 상공 구름 보통
06일 0400시부터 (UTC)
11kt
시정: 10km
고도 2000ft 상공 흐림
06일 0600시부터 (UTC)
9kt
시정: 1.6km
고도 500ft 상공 흐림
박무

TAF: KCDS 051859Z 0519/0618 15010KT P6SM OVC008 FM052000 16011KT P6SM OVC015 FM052100 17015KT P6SM SCT080 FM060400 17011KT P6SM OVC020 FM060600 17009KT 1SM BR OVC005

4,000개 이상의 공항 관측 자료 및 예보 (METAR 및 TAF 보고).

지도상에서 검색 가능한 기상관측소가 노란 점과 빨간 점으로 표시되어 있습니다.

기상관측소 명을 보려면 표시 위로 마우스를 이동하세요.

날씨 관측과 예보를 보려면 클릭하세요.

지도 변경 : 확대하려면 엑스 표시가 있는 녹색 버튼, 축소하려면 빼기 표시가 있는 녹색 버튼, 다음 페이지의 지도를 보려면 녹색 화살표를 클릭하세요.


METAR-TAF: